Station: Goondiwindi  

  Atmospheric Gas Attenuation - ITU Rec 676-11   ----------------- dB/100km -----------------
Date Time Temp RH % AH g/m3 Dew Point Wind Direction Speed kph Gust kph Barometer mB Rainfall Since 9am 24GHz 47GHz 76GHz 122GHz 134GHz 241GHz
03/09 15:40 31.6 21 6.94 6.6 26 35 1015.5 0 15.4 19.3 27.0 70.5 62.1 213.1
03/09 15:30 31.7 21 6.98 6.7 30 37 1015.6 0 15.4 19.3 27.1 70.7 62.4 214.3
03/09 15:20 31.3 22 7.16 7.1 26 35 1015.5 0 15.8 19.6 27.7 72.5 64.5 221.6
03/09 15:10 31.9 21 7.05 6.9 28 46 1015.5 0 15.6 19.4 27.2 71.1 62.9 216.2
03/09 15:00 31.6 21 6.94 6.6 24 37 1015.5 0 15.4 19.3 27.0 70.5 62.1 213.1
03/09 14:50 31.9 21 7.05 6.9 24 33 1015.6 0 15.6 19.4 27.2 71.1 63.0 216.2
03/09 14:40 31.8 21 7.02 6.8 30 44 1015.7 0 15.5 19.4 27.2 70.9 62.7 215.4
03/09 14:30 31.6 21 6.94 6.6 26 37 1015.7 0 15.4 19.3 27.0 70.5 62.1 213.2
03/09 14:20 31.9 21 7.05 6.9 26 39 1015.9 0 15.6 19.4 27.2 71.1 63.0 216.3
03/09 14:10 32 22 7.43 7.6 24 35 1016 0 16.4 19.9 28.3 74.1 66.7 229.3
03/09 14:00 31.6 21 6.94 6.6 28 37 1016.1 0 15.4 19.3 27.0 70.5 62.1 213.2
03/09 13:50 31.9 21 7.05 6.9 24 30 1016.2 0 15.6 19.4 27.2 71.1 63.0 216.3
03/09 13:40 31.8 22 7.35 7.5 30 43 1016.4 0 16.2 19.8 28.2 73.6 66.1 227.1
03/09 13:30 31.9 22 7.39 7.5 26 37 1016.5 0 16.3 19.8 28.3 73.9 66.4 228.2
03/09 13:20 31.6 21 6.94 6.6 26 37 1016.7 0 15.4 19.4 27.0 70.5 62.2 213.4
03/09 13:10 31.6 21 6.94 6.6 26 41 1016.7 0 15.4 19.4 27.0 70.5 62.2 213.4
03/09 13:00 31.4 23 7.52 7.8 22 33 1017 0 16.6 20.1 28.9 75.4 68.1 234.3
03/09 12:50 31.3 22 7.16 7.1 22 33 1017.2 0 15.8 19.7 27.8 72.6 64.6 221.9
03/09 12:40 31.1 24 7.72 8.2 26 35 1017.3 0 17.0 20.4 29.6 77.4 70.4 242.3
03/09 12:30 30.8 23 7.28 7.3 24 35 1017.6 0 16.1 20.0 28.3 74.0 66.2 227.5
03/09 12:20 30.3 23 7.09 6.9 30 43 1017.8 0 15.7 19.8 27.9 72.9 64.7 222.2
03/09 12:10 30.8 25 7.92 8.5 26 41 1017.8 0 17.4 20.8 30.3 79.4 72.8 250.5
03/09 12:00 30.8 24 7.6 7.9 26 37 1018 0 16.7 20.4 29.3 76.7 69.5 239.0
03/09 11:50 30.4 24 7.44 7.6 24 37 1018 0 16.4 20.3 29.0 75.7 68.2 234.4
03/09 11:40 30 25 7.58 7.8 26 37 1018.3 0 16.7 20.5 29.6 77.3 70.0 240.6
03/09 11:30 29.7 26 7.76 8.2 22 32 1018.4 0 17.1 20.8 30.2 79.1 72.1 248.1
03/09 11:20 29.2 25 7.26 7.2 22 35 1018.6 0 16.1 20.3 28.9 75.4 67.4 231.4
03/09 11:10 29.4 26 7.63 7.9 24 33 1018.7 0 16.9 20.7 29.9 78.3 71.0 244.3
03/09 11:00 29.6 27 8.01 8.6 20 28 1018.8 0 17.6 21.2 31.1 81.3 74.8 257.6
03/09 10:50 28.9 28 8 8.6 22 33 1018.9 0 17.6 21.3 31.3 81.9 75.4 259.5
03/09 10:40 28.7 29 8.2 8.9 20 26 1019.1 0 18.1 21.7 32.0 83.9 77.7 267.6
03/09 10:30 28.1 30 8.2 8.9 20 28 1019.3 0 18.1 21.8 32.3 84.5 78.3 269.6
03/09 10:20 27.7 31 8.29 9 20 30 1019.4 0 18.3 22.0 32.7 85.7 79.6 274.4
03/09 10:10 27.3 33 8.64 9.6 19 30 1019.4 0 19.0 22.6 34.1 89.3 83.9 289.2
03/09 10:00 26.7 33 8.35 9.1 20 28 1019.5 0 18.5 22.3 33.3 87.3 81.3 280.1
03/09 09:50 26.2 34 8.37 9.1 20 28 1019.6 0 18.5 22.5 33.6 88.0 82.0 282.6
03/09 09:40 25.7 35 8.38 9.1 19 28 1019.7 0 18.6 22.6 33.9 88.7 82.7 284.7
03/09 09:30 25.2 38 8.85 9.9 19 24 1019.7 0 19.6 23.4 35.7 93.5 88.5 305.2
03/09 09:20 24.9 40 9.16 10.4 15 22 1019.8 0 20.2 23.9 36.9 96.8 92.4 318.9
03/09 09:10 24.1 42 9.19 10.4 15 22 1019.9 0 20.3 24.2 37.4 98.1 93.7 323.4
03/09 09:00 23.4 43 9.04 10.1 17 22 1019.9 0 20.0 24.2 37.2 97.5 92.8 319.9
03/09 08:50 22.5 43 8.59 9.3 17 22 1019.8 0 19.1 23.7 36.0 94.2 88.5 304.8
03/09 08:40 22.3 46 9.08 10.1 17 22 1019.8 0 20.2 24.5 37.8 99.2 94.5 326.0
03/09 08:30 21.4 46 8.62 9.3 19 24 1019.7 0 19.3 24.1 36.5 95.8 90.1 310.2
03/09 08:20 20.8 47 8.51 9.1 19 26 1019.7 0 19.1 24.1 36.4 95.4 89.4 307.8
03/09 08:10 20.1 49 8.52 9.1 19 26 1019.7 0 19.1 24.3 36.8 96.3 90.3 310.9
03/09 08:00 19.5 50 8.39 8.8 17 24 1019.6 0 18.9 24.2 36.6 95.8 89.4 307.7
03/09 07:50 19 51 8.31 8.6 15 20 1019.7 0 18.7 24.2 36.5 95.6 89.0 306.2
03/09 07:40 17.9 53 8.09 8.2 17 22 1019.7 0 18.3 24.2 36.2 94.7 87.5 300.9
03/09 07:30 18.5 51 8.07 8.2 15 20 1019.7 0 18.2 24.0 35.8 93.8 86.6 297.8
03/09 07:20 18 55 8.45 8.8 13 20 1019.6 0 19.1 24.7 37.5 98.2 91.9 316.1
03/09 07:10 16.9 59 8.49 8.8 11 15 1019.6 0 19.2 25.1 38.1 99.9 93.7 322.3
03/09 07:00 15.9 61 8.26 8.4 11 13 1019.5 0 18.8 25.0 37.7 98.8 91.9 316.0
03/09 06:50 15.1 62 8 7.9 11 15 1019.5 0 18.2 24.8 37.1 97.1 89.5 307.6
03/09 06:40 15.3 61 7.97 7.8 11 15 1019.4 0 18.2 24.7 36.9 96.6 88.9 305.4
03/09 06:30 15.7 59 7.89 7.7 13 17 1019.4 0 18.0 24.5 36.4 95.3 87.5 300.4
03/09 06:20 16.1 57 7.81 7.6 13 17 1019.4 0 17.8 24.2 35.9 94.0 86.0 295.4
03/09 06:10 16.2 57 7.86 7.7 13 17 1019.3 0 17.9 24.3 36.0 94.3 86.5 297.2
03/09 06:00 16.1 58 7.95 7.8 11 15 1019.2 0 18.1 24.4 36.4 95.4 87.8 301.5
03/09 05:50 16 58 7.9 7.7 11 17 1019.1 0 18.0 24.4 36.3 95.0 87.2 299.6
03/09 05:40 15.9 58 7.85 7.7 11 15 1018.9 0 17.9 24.3 36.1 94.6 86.7 297.7
03/09 05:30 16 58 7.9 7.7 13 20 1018.9 0 18.0 24.4 36.3 94.9 87.2 299.6
03/09 05:20 16.1 57 7.81 7.6 15 20 1018.7 0 17.8 24.2 35.9 93.9 86.0 295.2
03/09 05:10 16.1 58 7.95 7.8 15 20 1018.6 0 18.1 24.4 36.4 95.3 87.7 301.3
03/09 05:00 15.7 60 8.03 8 13 19 1018.5 0 18.3 24.6 36.9 96.6 89.2 306.3
03/09 04:50 15.1 62 8 7.9 13 17 1018.4 0 18.2 24.8 37.0 97.0 89.5 307.3
03/09 04:40 14.4 65 8.04 7.9 13 17 1018.2 0 18.4 25.0 37.5 98.3 90.8 311.8
03/09 04:30 13.9 67 8.03 7.9 15 17 1018.1 0 18.4 25.1 37.7 98.8 91.2 313.3
03/09 04:20 13.4 70 8.14 8 13 15 1018.1 0 18.6 25.4 38.4 100.6 93.2 320.3
03/09 04:10 12.4 74 8.09 7.9 11 13 1018.3 0 18.6 25.7 38.7 101.3 93.8 322.1
03/09 04:00 11.9 75 7.94 7.6 11 13 1018.5 0 18.3 25.6 38.3 100.4 92.4 317.2
03/09 03:50 11.9 75 7.94 7.6 13 15 1018.4 0 18.3 25.6 38.3 100.4 92.4 317.2
03/09 03:40 11.5 75 7.75 7.2 9 13 1018.4 0 17.9 25.4 37.7 98.8 90.4 310.0
03/09 03:30 12 74 7.89 7.5 7 9 1018.3 0 18.2 25.5 38.1 99.7 91.6 314.4
03/09 03:20 12.3 74 8.04 7.8 9 9 1018.2 0 18.5 25.6 38.5 100.9 93.2 320.2
03/09 03:10 12 75 7.99 7.7 7 9 1018.2 0 18.4 25.6 38.4 100.8 92.9 319.1
03/09 03:00 11.7 75 7.85 7.4 6 9 1018.3 0 18.1 25.5 38.0 99.6 91.4 313.8
03/09 02:50 12.1 72 7.72 7.2 7 9 1018.2 0 17.8 25.1 37.3 97.7 89.3 306.2
03/09 02:40 12.6 73 8.08 7.9 7 9 1018.3 0 18.5 25.6 38.5 101.0 93.4 320.8
03/09 02:30 12.3 74 8.04 7.8 7 9 1018.2 0 18.5 25.6 38.5 100.9 93.2 320.2
03/09 02:20 12.3 74 8.04 7.8 7 9 1018.3 0 18.5 25.6 38.5 100.9 93.2 320.2
03/09 02:10 12.3 74 8.04 7.8 7 9 1018.3 0 18.5 25.6 38.5 100.9 93.2 320.2
03/09 02:00 12.6 74 8.19 8.1 6 6 1018.5 0 18.8 25.8 39.0 102.2 94.9 326.0
03/09 01:50 12.4 75 8.2 8.1 6 6 1018.5 0 18.8 25.8 39.1 102.5 95.3 327.3
03/09 01:40 12.2 76 8.2 8.1 6 6 1018.6 0 18.8 25.9 39.2 102.8 95.5 328.1
03/09 01:30 11.4 76 7.8 7.3 6 6 1018.6 0 18.0 25.5 38.0 99.5 91.2 312.7
03/09 01:20 11.8 74 7.79 7.3 4 6 1018.7 0 17.9 25.4 37.8 98.9 90.6 310.7
03/09 01:10 12.3 73 7.93 7.6 6 7 1018.7 0 18.2 25.4 38.1 99.8 91.8 315.2
03/09 01:00 12.2 73 7.88 7.5 6 7 1018.6 0 18.1 25.4 37.9 99.4 91.3 313.3
03/09 00:50 12.6 71 7.86 7.5 7 9 1018.6 0 18.1 25.2 37.7 98.6 90.5 310.8
03/09 00:40 13 70 7.94 7.6 7 7 1018.6 0 18.2 25.3 37.8 99.0 91.1 312.9
03/09 00:30 13.4 69 8.02 7.8 7 9 1018.7 0 18.4 25.3 37.9 99.4 91.7 314.9
03/09 00:20 13.3 69 7.97 7.7 7 9 1018.7 0 18.3 25.2 37.8 98.9 91.2 313.1
03/09 00:10 13.6 68 8 7.8 9 11 1018.6 0 18.3 25.2 37.7 98.9 91.2 313.2
03/09 00:00 14 67 8.08 8 7 9 1018.8 0 18.5 25.2 37.9 99.2 91.8 315.3
02/09 23:50 13.6 70 8.24 8.2 6 7 1018.9 0 18.8 25.6 38.7 101.5 94.4 324.3
02/09 23:40 13.1 69 7.87 7.5 6 7 1018.9 0 18.1 25.1 37.5 98.2 90.1 309.3
02/09 23:30 13.5 67 7.84 7.5 6 7 1019 0 18.0 25.0 37.2 97.4 89.3 306.4
02/09 23:20 14.1 65 7.89 7.6 6 6 1019.2 0 18.1 24.9 37.1 97.2 89.3 306.4
02/09 23:10 14.7 64 8.06 8 6 7 1019.2 0 18.4 25.0 37.5 98.2 90.7 311.7

Last Refresh: 03-Sep-2026 15:25:10

Bureau of Meteorology